Waverly, GA

12:23 AM EDT on September 02, 2014 (GMT -0400)
McKinnon | Change Station
CLOSE
Current Station
Airport
Location: Saint Simons Island,
Elevation: 20 ft
Nearby Weather Stations

Elev 20 ft 31.15 °N, 81.39 °W | Updated 30 minutes ago

Mostly Cloudy
Mostly Cloudy
83 °F
Feels Like 89 °F
N
5
Wind Variable Wind from SW

Today
High -- | Low -- °F
--% Chance of Precip.
Yesterday
High -- | Low -- °F
Precip. -- in
7:02 AM 7:48 PM
Waxing Crescent, 47% visible
Pressure 30.12 in
Visibility 10.0 miles
Clouds Scattered Clouds 5000 ft
Mostly Cloudy 8000 ft
Heat Index 89 °F
Dew Point 74 °F
Humidity 74%
Rainfall 0.00 in
Snow Depth Not available.
UV 0 out of 12
Pollen 8.50 out of 12
Air Quality Not available.
Flu Activity Not available.
METAR KSSI 020353Z AUTO 22004KT 10SM SCT050 BKN080 28/23 A3011 RMK AO2 SLP197 T02830233

More Conditions Fewer Conditions

Pressure 30.12 in
Visibility 10.0 miles
Clouds Scattered Clouds 5000 ft
Mostly Cloudy 8000 ft
Heat Index 89 °F
Dew Point 74 °F
Humidity 74%
Rainfall 0.00 in
Snow Depth Not available.
UV 0 out of 12
Pollen 8.50 out of 12
Air Quality Not available.
Flu Activity Not available.
METAR KSSI 020353Z AUTO 22004KT 10SM SCT050 BKN080 28/23 A3011 RMK AO2 SLP197 T02830233

More Conditions Fewer Conditions

10-Day Weather Forecast

Almanac

Astronomy

Sep. 02, 2014 Rise Set
Actual Time 7:02 AM EDT 7:48 PM EDT
Civil Twilight 6:38 AM EDT 8:12 PM EDT
Nautical Twilight 6:09 AM EDT 8:41 PM EDT
Astronomical Twilight 5:39 AM EDT 9:11 PM EDT
Moon 2:18 PM EDT 12:16 AM EDT
Length of Visible Light 13h 34m
Length of Day
12h 45m
Tomorrow will be 1m 49s shorter.
Waxing Crescent, 47% of the Moon is Illuminated
Today
Waxing Crescent
Sep 2
First Quarter
Sep 8
Full
Sep 15
Last Quarter
Sep 24
New

Yesterday's Extremes

State Highs State Lows

Community

WunderPhotos

Upload Photos

1,749,560 photos uploaded!

WunderBlogs® & News

Nearby

Snow Depth

Station Depth Elevation
No new snow has been reported.

Earthquake Activity

City Distance Mag. Time & Date
No recent earthquake activity has been reported nearby.
Minimum magnitude displayed is 2.5.

Coastal Water Temperatures

Place Temperature
Fernandina Beach, FL 88.0 °F
Mayport (Bar Pilots Dock), FL 87.1 °F

Nearby Weather Stations